Danville, Iowa
Current Conditions -  °F | °C
As of 8:53 AM on Monday 24 Nov 2014 (Local Time) from KBRL Reporting Station
Overcast Overcast  
Wind Chill: 19°   Ceiling: 1600
Heat Index: 31°   Visibility: 10mi
Dew Point: 28°   Wind: 17mph
Humidity: 89%   Direction: 280°W
Pressure: 29.46"   Gusts: 26mph
Location:  40.86°N, 91.31°W
Report Text: KBRL 241453Z AUTO 28015G23KT 10SM OVC016 M01/M02 A2946 RMK AO2 PK WND 29026/1418 SLP978 60000 T10061022
Loading
Personal Weather Stations






























Interactive Weather Map New forecast layout! Learn more

10-Day Weather Forecast

Advertisements
Track Severe Weather on mobile